sensor_id;sensor_type;location;lat;lon;timestamp;P1;durP1;ratioP1;P2;durP2;ratioP2
62707;SDS011;48769;51.624;5.886;2023-04-24T00:00:22;4.63;;;4.18;;
62707;SDS011;48769;51.624;5.886;2023-04-24T00:02:47;7.85;;;5.30;;
62707;SDS011;48769;51.624;5.886;2023-04-24T00:05:13;8.73;;;6.45;;
62707;SDS011;48769;51.624;5.886;2023-04-24T00:07:40;11.30;;;7.68;;
62707;SDS011;48769;51.624;5.886;2023-04-24T00:10:06;10.15;;;8.45;;
62707;SDS011;48769;51.624;5.886;2023-04-24T00:12:33;12.48;;;9.15;;
62707;SDS011;48769;51.624;5.886;2023-04-24T00:14:58;15.93;;;10.95;;
62707;SDS011;48769;51.624;5.886;2023-04-24T00:17:23;13.93;;;10.68;;
62707;SDS011;48769;51.624;5.886;2023-04-24T00:19:49;17.13;;;11.35;;
62707;SDS011;48769;51.624;5.886;2023-04-24T00:22:16;18.10;;;12.05;;
62707;SDS011;48769;51.624;5.886;2023-04-24T00:24:42;15.75;;;12.23;;
62707;SDS011;48769;51.624;5.886;2023-04-24T00:27:08;17.17;;;12.25;;
62707;SDS011;48769;51.624;5.886;2023-04-24T00:29:36;24.13;;;13.77;;
62707;SDS011;48769;51.624;5.886;2023-04-24T00:32:01;17.75;;;12.90;;
62707;SDS011;48769;51.624;5.886;2023-04-24T00:34:27;17.95;;;14.38;;
62707;SDS011;48769;51.624;5.886;2023-04-24T00:36:52;25.05;;;14.95;;
62707;SDS011;48769;51.624;5.886;2023-04-24T00:39:18;23.42;;;14.85;;
62707;SDS011;48769;51.624;5.886;2023-04-24T00:41:44;19.27;;;15.18;;
62707;SDS011;48769;51.624;5.886;2023-04-24T00:44:11;21.52;;;16.17;;
62707;SDS011;48769;51.624;5.886;2023-04-24T00:46:36;23.50;;;17.35;;
62707;SDS011;48769;51.624;5.886;2023-04-24T00:49:02;22.85;;;16.23;;
62707;SDS011;48769;51.624;5.886;2023-04-24T00:51:29;23.35;;;17.50;;
62707;SDS011;48769;51.624;5.886;2023-04-24T00:53:55;25.17;;;18.60;;
62707;SDS011;48769;51.624;5.886;2023-04-24T00:56:21;25.40;;;18.50;;
62707;SDS011;48769;51.624;5.886;2023-04-24T00:58:46;27.55;;;19.48;;
62707;SDS011;48769;51.624;5.886;2023-04-24T01:01:12;29.23;;;20.15;;
62707;SDS011;48769;51.624;5.886;2023-04-24T01:03:37;28.83;;;19.80;;
62707;SDS011;48769;51.624;5.886;2023-04-24T01:06:04;29.33;;;20.40;;
62707;SDS011;48769;51.624;5.886;2023-04-24T01:08:30;29.38;;;22.63;;
62707;SDS011;48769;51.624;5.886;2023-04-24T01:10:56;34.28;;;21.80;;
62707;SDS011;48769;51.624;5.886;2023-04-24T01:13:22;30.67;;;22.02;;
62707;SDS011;48769;51.624;5.886;2023-04-24T01:15:48;33.40;;;23.30;;
62707;SDS011;48769;51.624;5.886;2023-04-24T01:18:13;33.20;;;22.90;;
62707;SDS011;48769;51.624;5.886;2023-04-24T01:20:40;32.67;;;21.88;;
62707;SDS011;48769;51.624;5.886;2023-04-24T01:23:07;37.85;;;24.38;;
62707;SDS011;48769;51.624;5.886;2023-04-24T01:25:33;33.00;;;22.75;;
62707;SDS011;48769;51.624;5.886;2023-04-24T01:27:59;32.90;;;23.33;;
62707;SDS011;48769;51.624;5.886;2023-04-24T01:30:25;36.13;;;23.17;;
62707;SDS011;48769;51.624;5.886;2023-04-24T01:32:53;33.05;;;23.63;;
62707;SDS011;48769;51.624;5.886;2023-04-24T01:35:20;36.78;;;23.77;;
62707;SDS011;48769;51.624;5.886;2023-04-24T01:37:45;41.47;;;25.65;;
62707;SDS011;48769;51.624;5.886;2023-04-24T01:40:11;35.88;;;23.45;;
62707;SDS011;48769;51.624;5.886;2023-04-24T01:42:36;35.08;;;23.92;;
62707;SDS011;48769;51.624;5.886;2023-04-24T01:45:02;35.78;;;24.55;;
62707;SDS011;48769;51.624;5.886;2023-04-24T01:47:30;30.40;;;24.67;;
62707;SDS011;48769;51.624;5.886;2023-04-24T01:49:56;39.83;;;26.10;;
62707;SDS011;48769;51.624;5.886;2023-04-24T01:52:22;35.05;;;25.48;;
62707;SDS011;48769;51.624;5.886;2023-04-24T01:54:47;40.38;;;26.38;;
62707;SDS011;48769;51.624;5.886;2023-04-24T01:57:13;35.70;;;26.27;;
62707;SDS011;48769;51.624;5.886;2023-04-24T01:59:39;42.30;;;26.73;;
62707;SDS011;48769;51.624;5.886;2023-04-24T02:02:05;45.67;;;27.25;;
62707;SDS011;48769;51.624;5.886;2023-04-24T02:04:31;43.13;;;28.70;;
62707;SDS011;48769;51.624;5.886;2023-04-24T02:06:56;52.75;;;31.50;;
62707;SDS011;48769;51.624;5.886;2023-04-24T02:09:22;47.42;;;29.70;;
62707;SDS011;48769;51.624;5.886;2023-04-24T02:11:47;43.58;;;29.75;;
62707;SDS011;48769;51.624;5.886;2023-04-24T02:14:12;44.28;;;28.75;;
62707;SDS011;48769;51.624;5.886;2023-04-24T02:16:37;57.47;;;31.27;;
62707;SDS011;48769;51.624;5.886;2023-04-24T02:19:03;47.97;;;30.38;;
62707;SDS011;48769;51.624;5.886;2023-04-24T02:21:31;44.63;;;30.40;;
62707;SDS011;48769;51.624;5.886;2023-04-24T02:23:57;52.95;;;31.52;;
62707;SDS011;48769;51.624;5.886;2023-04-24T02:26:23;49.08;;;32.17;;
62707;SDS011;48769;51.624;5.886;2023-04-24T02:28:48;50.13;;;31.13;;
62707;SDS011;48769;51.624;5.886;2023-04-24T02:31:14;50.75;;;32.88;;
62707;SDS011;48769;51.624;5.886;2023-04-24T02:33:39;51.35;;;32.63;;
62707;SDS011;48769;51.624;5.886;2023-04-24T02:36:05;53.58;;;34.00;;
62707;SDS011;48769;51.624;5.886;2023-04-24T02:38:30;48.88;;;33.05;;
62707;SDS011;48769;51.624;5.886;2023-04-24T02:40:55;52.28;;;33.85;;
62707;SDS011;48769;51.624;5.886;2023-04-24T02:43:21;57.83;;;33.90;;
62707;SDS011;48769;51.624;5.886;2023-04-24T02:45:46;50.90;;;33.90;;
62707;SDS011;48769;51.624;5.886;2023-04-24T02:48:11;48.53;;;32.88;;
62707;SDS011;48769;51.624;5.886;2023-04-24T02:50:37;49.17;;;32.53;;
62707;SDS011;48769;51.624;5.886;2023-04-24T02:53:02;50.15;;;34.10;;
62707;SDS011;48769;51.624;5.886;2023-04-24T02:55:28;50.85;;;32.92;;
62707;SDS011;48769;51.624;5.886;2023-04-24T02:57:53;56.65;;;34.67;;
62707;SDS011;48769;51.624;5.886;2023-04-24T03:00:18;49.17;;;33.38;;
62707;SDS011;48769;51.624;5.886;2023-04-24T03:02:44;45.42;;;32.63;;
62707;SDS011;48769;51.624;5.886;2023-04-24T03:05:09;52.38;;;33.88;;
62707;SDS011;48769;51.624;5.886;2023-04-24T03:07:36;56.05;;;33.70;;
62707;SDS011;48769;51.624;5.886;2023-04-24T03:10:02;49.25;;;33.83;;
62707;SDS011;48769;51.624;5.886;2023-04-24T03:12:27;54.35;;;34.70;;
62707;SDS011;48769;51.624;5.886;2023-04-24T03:14:53;52.42;;;33.67;;
62707;SDS011;48769;51.624;5.886;2023-04-24T03:17:18;45.75;;;31.88;;
62707;SDS011;48769;51.624;5.886;2023-04-24T03:19:43;53.63;;;33.88;;
62707;SDS011;48769;51.624;5.886;2023-04-24T03:22:09;50.17;;;31.58;;
62707;SDS011;48769;51.624;5.886;2023-04-24T03:24:34;51.35;;;32.90;;
62707;SDS011;48769;51.624;5.886;2023-04-24T03:26:59;50.72;;;33.58;;
62707;SDS011;48769;51.624;5.886;2023-04-24T03:29:25;53.50;;;34.08;;
62707;SDS011;48769;51.624;5.886;2023-04-24T03:31:50;54.67;;;33.85;;
62707;SDS011;48769;51.624;5.886;2023-04-24T03:34:16;50.70;;;33.53;;
62707;SDS011;48769;51.624;5.886;2023-04-24T03:36:41;56.40;;;35.65;;
62707;SDS011;48769;51.624;5.886;2023-04-24T03:39:06;56.83;;;34.00;;
62707;SDS011;48769;51.624;5.886;2023-04-24T03:41:32;49.55;;;32.58;;
62707;SDS011;48769;51.624;5.886;2023-04-24T03:43:58;48.10;;;31.20;;
62707;SDS011;48769;51.624;5.886;2023-04-24T03:46:23;49.72;;;30.95;;
62707;SDS011;48769;51.624;5.886;2023-04-24T03:48:49;46.70;;;29.98;;
62707;SDS011;48769;51.624;5.886;2023-04-24T03:51:14;49.38;;;31.77;;
62707;SDS011;48769;51.624;5.886;2023-04-24T03:53:39;46.65;;;30.98;;
62707;SDS011;48769;51.624;5.886;2023-04-24T03:56:05;47.75;;;29.40;;
62707;SDS011;48769;51.624;5.886;2023-04-24T03:58:30;47.55;;;30.13;;
62707;SDS011;48769;51.624;5.886;2023-04-24T04:00:56;44.03;;;28.58;;
62707;SDS011;48769;51.624;5.886;2023-04-24T04:03:23;46.45;;;28.08;;
62707;SDS011;48769;51.624;5.886;2023-04-24T04:05:48;41.85;;;27.45;;
62707;SDS011;48769;51.624;5.886;2023-04-24T04:08:13;44.17;;;28.52;;
62707;SDS011;48769;51.624;5.886;2023-04-24T04:10:39;43.92;;;27.25;;
62707;SDS011;48769;51.624;5.886;2023-04-24T04:13:05;40.00;;;26.15;;
62707;SDS011;48769;51.624;5.886;2023-04-24T04:15:31;35.90;;;24.70;;
62707;SDS011;48769;51.624;5.886;2023-04-24T04:17:56;39.83;;;26.30;;
62707;SDS011;48769;51.624;5.886;2023-04-24T04:20:22;38.88;;;25.63;;
62707;SDS011;48769;51.624;5.886;2023-04-24T04:22:47;35.90;;;24.48;;
62707;SDS011;48769;51.624;5.886;2023-04-24T04:25:12;32.33;;;23.60;;
62707;SDS011;48769;51.624;5.886;2023-04-24T04:27:38;38.83;;;24.50;;
62707;SDS011;48769;51.624;5.886;2023-04-24T04:30:04;35.00;;;24.77;;
62707;SDS011;48769;51.624;5.886;2023-04-24T04:32:33;40.22;;;25.13;;
62707;SDS011;48769;51.624;5.886;2023-04-24T04:35:02;34.28;;;25.63;;
62707;SDS011;48769;51.624;5.886;2023-04-24T04:37:37;37.15;;;23.52;;
62707;SDS011;48769;51.624;5.886;2023-04-24T04:40:03;37.40;;;25.15;;
62707;SDS011;48769;51.624;5.886;2023-04-24T04:42:32;31.58;;;23.50;;
62707;SDS011;48769;51.624;5.886;2023-04-24T04:44:59;35.67;;;22.33;;
62707;SDS011;48769;51.624;5.886;2023-04-24T04:47:25;41.25;;;23.20;;
62707;SDS011;48769;51.624;5.886;2023-04-24T04:49:51;35.05;;;23.05;;
62707;SDS011;48769;51.624;5.886;2023-04-24T04:52:17;30.88;;;21.58;;
62707;SDS011;48769;51.624;5.886;2023-04-24T04:54:42;31.08;;;20.92;;
62707;SDS011;48769;51.624;5.886;2023-04-24T04:57:08;29.30;;;20.83;;
62707;SDS011;48769;51.624;5.886;2023-04-24T04:59:33;28.13;;;21.33;;
62707;SDS011;48769;51.624;5.886;2023-04-24T05:01:59;27.30;;;19.35;;
62707;SDS011;48769;51.624;5.886;2023-04-24T05:04:24;27.13;;;20.30;;
62707;SDS011;48769;51.624;5.886;2023-04-24T05:06:50;26.33;;;20.05;;
62707;SDS011;48769;51.624;5.886;2023-04-24T05:09:16;28.45;;;20.58;;
62707;SDS011;48769;51.624;5.886;2023-04-24T05:11:44;25.20;;;20.55;;
62707;SDS011;48769;51.624;5.886;2023-04-24T05:14:09;31.15;;;20.75;;
62707;SDS011;48769;51.624;5.886;2023-04-24T05:16:34;25.83;;;20.15;;
62707;SDS011;48769;51.624;5.886;2023-04-24T05:19:01;23.33;;;18.05;;
62707;SDS011;48769;51.624;5.886;2023-04-24T05:21:27;29.42;;;20.50;;
62707;SDS011;48769;51.624;5.886;2023-04-24T05:23:52;30.65;;;20.73;;
62707;SDS011;48769;51.624;5.886;2023-04-24T05:26:17;29.15;;;19.65;;
62707;SDS011;48769;51.624;5.886;2023-04-24T05:28:42;28.08;;;20.98;;
62707;SDS011;48769;51.624;5.886;2023-04-24T05:31:08;27.85;;;20.17;;
62707;SDS011;48769;51.624;5.886;2023-04-24T05:33:33;27.00;;;20.30;;
62707;SDS011;48769;51.624;5.886;2023-04-24T05:35:58;29.08;;;21.02;;
62707;SDS011;48769;51.624;5.886;2023-04-24T05:38:24;27.83;;;20.55;;
62707;SDS011;48769;51.624;5.886;2023-04-24T05:40:49;29.55;;;21.52;;
62707;SDS011;48769;51.624;5.886;2023-04-24T05:43:14;26.98;;;19.38;;
62707;SDS011;48769;51.624;5.886;2023-04-24T05:45:43;27.02;;;19.58;;
62707;SDS011;48769;51.624;5.886;2023-04-24T05:48:08;26.88;;;18.88;;
62707;SDS011;48769;51.624;5.886;2023-04-24T05:50:33;25.08;;;17.95;;
62707;SDS011;48769;51.624;5.886;2023-04-24T05:52:58;21.48;;;16.25;;
62707;SDS011;48769;51.624;5.886;2023-04-24T05:55:24;23.48;;;16.50;;
62707;SDS011;48769;51.624;5.886;2023-04-24T05:57:51;26.88;;;17.88;;
62707;SDS011;48769;51.624;5.886;2023-04-24T06:00:16;24.67;;;16.77;;
62707;SDS011;48769;51.624;5.886;2023-04-24T06:02:44;22.58;;;16.55;;
62707;SDS011;48769;51.624;5.886;2023-04-24T06:05:10;24.38;;;16.08;;
62707;SDS011;48769;51.624;5.886;2023-04-24T06:07:36;22.13;;;15.68;;
62707;SDS011;48769;51.624;5.886;2023-04-24T06:10:01;20.23;;;14.68;;
62707;SDS011;48769;51.624;5.886;2023-04-24T06:12:26;17.27;;;13.05;;
62707;SDS011;48769;51.624;5.886;2023-04-24T06:14:52;18.73;;;14.48;;
62707;SDS011;48769;51.624;5.886;2023-04-24T06:17:19;17.55;;;12.90;;
62707;SDS011;48769;51.624;5.886;2023-04-24T06:19:44;18.15;;;14.05;;
62707;SDS011;48769;51.624;5.886;2023-04-24T06:22:09;19.20;;;13.88;;
62707;SDS011;48769;51.624;5.886;2023-04-24T06:24:35;18.35;;;13.50;;
62707;SDS011;48769;51.624;5.886;2023-04-24T06:27:00;18.50;;;13.55;;
62707;SDS011;48769;51.624;5.886;2023-04-24T06:29:26;18.80;;;13.48;;
62707;SDS011;48769;51.624;5.886;2023-04-24T06:31:52;21.33;;;13.43;;
62707;SDS011;48769;51.624;5.886;2023-04-24T06:34:17;12.20;;;9.25;;
62707;SDS011;48769;51.624;5.886;2023-04-24T06:36:46;13.02;;;9.73;;
62707;SDS011;48769;51.624;5.886;2023-04-24T06:39:11;13.90;;;10.68;;
62707;SDS011;48769;51.624;5.886;2023-04-24T06:41:37;10.40;;;7.88;;
62707;SDS011;48769;51.624;5.886;2023-04-24T06:44:02;7.90;;;6.03;;
62707;SDS011;48769;51.624;5.886;2023-04-24T06:46:28;7.72;;;6.25;;
62707;SDS011;48769;51.624;5.886;2023-04-24T06:48:53;7.57;;;5.80;;
62707;SDS011;48769;51.624;5.886;2023-04-24T06:51:24;8.20;;;5.65;;
62707;SDS011;48769;51.624;5.886;2023-04-24T06:53:53;7.88;;;5.03;;
62707;SDS011;48769;51.624;5.886;2023-04-24T06:56:20;4.38;;;3.90;;
62707;SDS011;48769;51.624;5.886;2023-04-24T06:58:46;4.28;;;3.85;;
62707;SDS011;48769;51.624;5.886;2023-04-24T07:01:11;3.92;;;3.35;;
62707;SDS011;48769;51.624;5.886;2023-04-24T07:03:37;4.25;;;3.15;;
62707;SDS011;48769;51.624;5.886;2023-04-24T07:06:02;5.63;;;2.53;;
62707;SDS011;48769;51.624;5.886;2023-04-24T07:08:29;5.10;;;2.50;;
62707;SDS011;48769;51.624;5.886;2023-04-24T07:10:55;3.65;;;2.35;;
62707;SDS011;48769;51.624;5.886;2023-04-24T07:13:22;3.45;;;2.00;;
62707;SDS011;48769;51.624;5.886;2023-04-24T07:15:47;2.00;;;1.80;;
62707;SDS011;48769;51.624;5.886;2023-04-24T07:18:15;3.63;;;2.08;;
62707;SDS011;48769;51.624;5.886;2023-04-24T07:20:40;5.15;;;2.38;;
62707;SDS011;48769;51.624;5.886;2023-04-24T07:23:06;3.05;;;1.90;;
62707;SDS011;48769;51.624;5.886;2023-04-24T07:25:31;4.72;;;2.03;;
62707;SDS011;48769;51.624;5.886;2023-04-24T07:27:56;4.93;;;2.40;;
62707;SDS011;48769;51.624;5.886;2023-04-24T07:30:22;5.13;;;2.65;;
62707;SDS011;48769;51.624;5.886;2023-04-24T07:32:47;3.67;;;3.38;;
62707;SDS011;48769;51.624;5.886;2023-04-24T07:35:13;6.25;;;4.93;;
62707;SDS011;48769;51.624;5.886;2023-04-24T07:37:38;9.82;;;6.40;;
62707;SDS011;48769;51.624;5.886;2023-04-24T07:40:03;8.35;;;6.90;;
62707;SDS011;48769;51.624;5.886;2023-04-24T07:42:29;6.65;;;6.03;;
62707;SDS011;48769;51.624;5.886;2023-04-24T07:44:55;8.05;;;6.50;;
62707;SDS011;48769;51.624;5.886;2023-04-24T07:47:21;11.10;;;7.28;;
62707;SDS011;48769;51.624;5.886;2023-04-24T07:49:46;16.65;;;10.98;;
62707;SDS011;48769;51.624;5.886;2023-04-24T07:52:11;19.83;;;11.95;;
62707;SDS011;48769;51.624;5.886;2023-04-24T07:54:37;20.05;;;14.50;;
62707;SDS011;48769;51.624;5.886;2023-04-24T07:57:02;25.23;;;16.33;;
62707;SDS011;48769;51.624;5.886;2023-04-24T07:59:28;26.58;;;17.98;;
62707;SDS011;48769;51.624;5.886;2023-04-24T08:01:53;28.42;;;17.42;;
62707;SDS011;48769;51.624;5.886;2023-04-24T08:04:19;31.13;;;18.00;;
62707;SDS011;48769;51.624;5.886;2023-04-24T08:06:44;29.30;;;18.67;;
62707;SDS011;48769;51.624;5.886;2023-04-24T08:09:09;26.00;;;17.33;;
62707;SDS011;48769;51.624;5.886;2023-04-24T08:11:35;29.58;;;18.02;;
62707;SDS011;48769;51.624;5.886;2023-04-24T08:14:00;26.70;;;16.15;;
62707;SDS011;48769;51.624;5.886;2023-04-24T08:16:26;28.75;;;16.13;;
62707;SDS011;48769;51.624;5.886;2023-04-24T08:18:52;26.73;;;16.95;;
62707;SDS011;48769;51.624;5.886;2023-04-24T08:21:18;24.75;;;14.90;;
62707;SDS011;48769;51.624;5.886;2023-04-24T08:23:44;26.98;;;15.82;;
62707;SDS011;48769;51.624;5.886;2023-04-24T08:26:10;23.70;;;15.63;;
62707;SDS011;48769;51.624;5.886;2023-04-24T08:28:36;28.92;;;14.70;;
62707;SDS011;48769;51.624;5.886;2023-04-24T08:31:02;25.45;;;16.17;;
62707;SDS011;48769;51.624;5.886;2023-04-24T08:33:27;28.90;;;14.52;;
62707;SDS011;48769;51.624;5.886;2023-04-24T08:35:57;24.95;;;15.43;;
62707;SDS011;48769;51.624;5.886;2023-04-24T08:38:23;29.42;;;15.07;;
62707;SDS011;48769;51.624;5.886;2023-04-24T08:40:48;30.17;;;15.60;;
62707;SDS011;48769;51.624;5.886;2023-04-24T08:43:14;36.05;;;15.95;;
62707;SDS011;48769;51.624;5.886;2023-04-24T08:45:40;34.25;;;16.52;;
62707;SDS011;48769;51.624;5.886;2023-04-24T08:48:06;34.92;;;18.98;;
62707;SDS011;48769;51.624;5.886;2023-04-24T08:50:32;32.22;;;15.98;;
62707;SDS011;48769;51.624;5.886;2023-04-24T08:52:59;28.52;;;15.02;;
62707;SDS011;48769;51.624;5.886;2023-04-24T08:55:25;25.55;;;13.88;;
62707;SDS011;48769;51.624;5.886;2023-04-24T08:57:51;24.50;;;10.18;;
62707;SDS011;48769;51.624;5.886;2023-04-24T09:00:18;23.02;;;7.97;;
62707;SDS011;48769;51.624;5.886;2023-04-24T09:02:45;22.17;;;7.85;;
62707;SDS011;48769;51.624;5.886;2023-04-24T09:05:13;16.48;;;7.03;;
62707;SDS011;48769;51.624;5.886;2023-04-24T09:07:41;21.80;;;8.15;;
62707;SDS011;48769;51.624;5.886;2023-04-24T09:10:10;21.40;;;7.55;;
62707;SDS011;48769;51.624;5.886;2023-04-24T09:12:35;21.23;;;7.35;;
62707;SDS011;48769;51.624;5.886;2023-04-24T09:15:02;20.55;;;8.15;;
62707;SDS011;48769;51.624;5.886;2023-04-24T09:17:29;24.45;;;8.65;;
62707;SDS011;48769;51.624;5.886;2023-04-24T09:19:55;25.52;;;8.32;;
62707;SDS011;48769;51.624;5.886;2023-04-24T09:22:21;25.55;;;7.90;;
62707;SDS011;48769;51.624;5.886;2023-04-24T09:24:46;29.88;;;8.93;;
62707;SDS011;48769;51.624;5.886;2023-04-24T09:27:12;24.30;;;8.23;;
62707;SDS011;48769;51.624;5.886;2023-04-24T09:29:39;28.33;;;7.97;;
62707;SDS011;48769;51.624;5.886;2023-04-24T09:32:21;26.23;;;7.80;;
62707;SDS011;48769;51.624;5.886;2023-04-24T09:34:50;24.67;;;6.75;;
62707;SDS011;48769;51.624;5.886;2023-04-24T09:37:34;23.23;;;6.95;;
62707;SDS011;48769;51.624;5.886;2023-04-24T09:40:07;25.20;;;7.18;;
62707;SDS011;48769;51.624;5.886;2023-04-24T09:42:44;26.42;;;7.20;;
62707;SDS011;48769;51.624;5.886;2023-04-24T09:45:20;23.05;;;7.43;;
62707;SDS011;48769;51.624;5.886;2023-04-24T09:47:46;23.05;;;7.10;;
62707;SDS011;48769;51.624;5.886;2023-04-24T09:50:16;21.23;;;7.00;;
62707;SDS011;48769;51.624;5.886;2023-04-24T09:52:43;28.90;;;6.63;;
62707;SDS011;48769;51.624;5.886;2023-04-24T09:55:20;19.50;;;5.65;;
62707;SDS011;48769;51.624;5.886;2023-04-24T09:57:49;24.63;;;7.13;;
62707;SDS011;48769;51.624;5.886;2023-04-24T10:00:29;19.55;;;5.85;;
62707;SDS011;48769;51.624;5.886;2023-04-24T10:02:57;18.10;;;6.30;;
62707;SDS011;48769;51.624;5.886;2023-04-24T10:05:26;20.35;;;5.90;;
62707;SDS011;48769;51.624;5.886;2023-04-24T10:08:01;26.67;;;6.47;;
62707;SDS011;48769;51.624;5.886;2023-04-24T10:10:31;16.55;;;6.53;;
62707;SDS011;48769;51.624;5.886;2023-04-24T10:12:57;15.57;;;5.30;;
62707;SDS011;48769;51.624;5.886;2023-04-24T10:15:24;16.48;;;4.88;;
62707;SDS011;48769;51.624;5.886;2023-04-24T10:17:51;13.48;;;4.22;;
62707;SDS011;48769;51.624;5.886;2023-04-24T10:20:23;13.15;;;4.63;;
62707;SDS011;48769;51.624;5.886;2023-04-24T10:22:50;9.57;;;4.28;;
62707;SDS011;48769;51.624;5.886;2023-04-24T10:25:20;16.00;;;4.80;;
62707;SDS011;48769;51.624;5.886;2023-04-24T10:27:47;20.25;;;4.93;;
62707;SDS011;48769;51.624;5.886;2023-04-24T10:30:13;16.52;;;5.32;;
62707;SDS011;48769;51.624;5.886;2023-04-24T10:32:39;19.45;;;5.38;;
62707;SDS011;48769;51.624;5.886;2023-04-24T10:35:08;14.65;;;5.20;;
62707;SDS011;48769;51.624;5.886;2023-04-24T10:37:38;18.00;;;6.15;;
62707;SDS011;48769;51.624;5.886;2023-04-24T10:40:07;12.60;;;3.83;;
62707;SDS011;48769;51.624;5.886;2023-04-24T10:42:34;17.45;;;4.97;;
62707;SDS011;48769;51.624;5.886;2023-04-24T10:45:04;16.33;;;4.40;;
62707;SDS011;48769;51.624;5.886;2023-04-24T10:47:39;13.68;;;5.00;;
62707;SDS011;48769;51.624;5.886;2023-04-24T10:50:15;20.80;;;6.57;;
62707;SDS011;48769;51.624;5.886;2023-04-24T10:52:47;10.90;;;4.85;;
62707;SDS011;48769;51.624;5.886;2023-04-24T10:55:13;8.30;;;3.42;;
62707;SDS011;48769;51.624;5.886;2023-04-24T10:57:40;10.55;;;4.13;;
62707;SDS011;48769;51.624;5.886;2023-04-24T11:00:26;11.75;;;4.30;;
62707;SDS011;48769;51.624;5.886;2023-04-24T11:02:52;16.08;;;4.93;;
62707;SDS011;48769;51.624;5.886;2023-04-24T11:05:18;25.15;;;4.68;;
62707;SDS011;48769;51.624;5.886;2023-04-24T11:10:47;15.15;;;5.05;;
62707;SDS011;48769;51.624;5.886;2023-04-24T11:21:44;7.43;;;3.63;;
62707;SDS011;48769;51.624;5.886;2023-04-24T11:24:30;6.55;;;2.85;;
62707;SDS011;48769;51.624;5.886;2023-04-24T11:27:18;8.60;;;3.22;;
62707;SDS011;48769;51.624;5.886;2023-04-24T11:29:43;7.80;;;2.60;;
62707;SDS011;48769;51.624;5.886;2023-04-24T11:34:44;6.32;;;2.20;;
62707;SDS011;48769;51.624;5.886;2023-04-24T11:37:11;5.03;;;1.92;;
62707;SDS011;48769;51.624;5.886;2023-04-24T11:39:36;5.22;;;1.98;;
62707;SDS011;48769;51.624;5.886;2023-04-24T11:42:02;6.50;;;1.95;;
62707;SDS011;48769;51.624;5.886;2023-04-24T11:44:28;6.43;;;2.80;;
62707;SDS011;48769;51.624;5.886;2023-04-24T11:46:55;4.57;;;2.28;;
62707;SDS011;48769;51.624;5.886;2023-04-24T11:49:21;4.43;;;2.58;;
62707;SDS011;48769;51.624;5.886;2023-04-24T11:51:46;6.40;;;2.88;;
62707;SDS011;48769;51.624;5.886;2023-04-24T11:54:12;5.13;;;2.92;;
62707;SDS011;48769;51.624;5.886;2023-04-24T11:56:37;9.85;;;3.78;;
62707;SDS011;48769;51.624;5.886;2023-04-24T11:59:04;8.40;;;3.08;;
62707;SDS011;48769;51.624;5.886;2023-04-24T12:01:29;8.40;;;2.80;;
62707;SDS011;48769;51.624;5.886;2023-04-24T12:03:59;8.10;;;2.75;;
62707;SDS011;48769;51.624;5.886;2023-04-24T12:06:25;6.28;;;2.90;;
62707;SDS011;48769;51.624;5.886;2023-04-24T12:08:51;8.48;;;1.80;;
62707;SDS011;48769;51.624;5.886;2023-04-24T12:11:17;4.38;;;1.50;;
62707;SDS011;48769;51.624;5.886;2023-04-24T12:13:43;3.80;;;1.70;;
62707;SDS011;48769;51.624;5.886;2023-04-24T12:16:09;7.43;;;2.13;;
62707;SDS011;48769;51.624;5.886;2023-04-24T12:18:34;6.20;;;2.08;;
62707;SDS011;48769;51.624;5.886;2023-04-24T12:21:16;4.60;;;1.83;;
62707;SDS011;48769;51.624;5.886;2023-04-24T12:23:45;7.07;;;2.03;;
62707;SDS011;48769;51.624;5.886;2023-04-24T12:26:10;7.80;;;2.67;;
62707;SDS011;48769;51.624;5.886;2023-04-24T12:28:37;8.65;;;2.25;;
62707;SDS011;48769;51.624;5.886;2023-04-24T12:31:03;7.30;;;2.70;;
62707;SDS011;48769;51.624;5.886;2023-04-24T12:33:32;8.40;;;3.72;;
62707;SDS011;48769;51.624;5.886;2023-04-24T12:35:59;6.65;;;2.92;;
62707;SDS011;48769;51.624;5.886;2023-04-24T12:38:25;5.45;;;1.83;;
62707;SDS011;48769;51.624;5.886;2023-04-24T12:41:05;6.97;;;2.33;;
62707;SDS011;48769;51.624;5.886;2023-04-24T12:43:31;10.70;;;2.45;;
62707;SDS011;48769;51.624;5.886;2023-04-24T12:45:57;8.63;;;3.03;;
62707;SDS011;48769;51.624;5.886;2023-04-24T12:48:23;8.10;;;2.20;;
62707;SDS011;48769;51.624;5.886;2023-04-24T12:50:49;5.43;;;2.20;;
62707;SDS011;48769;51.624;5.886;2023-04-24T12:53:14;5.55;;;1.85;;
62707;SDS011;48769;51.624;5.886;2023-04-24T12:55:40;6.88;;;2.35;;
62707;SDS011;48769;51.624;5.886;2023-04-24T12:58:06;8.65;;;2.35;;
62707;SDS011;48769;51.624;5.886;2023-04-24T13:00:32;9.00;;;2.58;;
62707;SDS011;48769;51.624;5.886;2023-04-24T13:02:57;11.02;;;2.33;;
62707;SDS011;48769;51.624;5.886;2023-04-24T13:05:22;9.10;;;2.53;;
62707;SDS011;48769;51.624;5.886;2023-04-24T13:07:48;11.90;;;3.20;;
62707;SDS011;48769;51.624;5.886;2023-04-24T13:10:13;5.28;;;2.83;;
62707;SDS011;48769;51.624;5.886;2023-04-24T13:12:38;10.15;;;3.20;;
62707;SDS011;48769;51.624;5.886;2023-04-24T13:15:05;9.23;;;3.20;;
62707;SDS011;48769;51.624;5.886;2023-04-24T13:17:31;10.63;;;3.58;;
62707;SDS011;48769;51.624;5.886;2023-04-24T13:19:58;11.35;;;3.83;;
62707;SDS011;48769;51.624;5.886;2023-04-24T13:22:23;11.43;;;4.18;;
62707;SDS011;48769;51.624;5.886;2023-04-24T13:24:48;6.78;;;4.30;;
62707;SDS011;48769;51.624;5.886;2023-04-24T13:27:14;7.68;;;4.15;;
62707;SDS011;48769;51.624;5.886;2023-04-24T13:29:40;5.38;;;3.00;;
62707;SDS011;48769;51.624;5.886;2023-04-24T13:32:06;4.85;;;2.85;;
62707;SDS011;48769;51.624;5.886;2023-04-24T13:34:32;5.40;;;2.88;;
62707;SDS011;48769;51.624;5.886;2023-04-24T13:36:57;4.88;;;2.47;;
62707;SDS011;48769;51.624;5.886;2023-04-24T13:39:23;7.57;;;2.38;;
62707;SDS011;48769;51.624;5.886;2023-04-24T13:41:50;3.05;;;2.10;;
62707;SDS011;48769;51.624;5.886;2023-04-24T13:44:16;4.15;;;2.00;;
62707;SDS011;48769;51.624;5.886;2023-04-24T13:46:42;4.03;;;1.88;;
62707;SDS011;48769;51.624;5.886;2023-04-24T13:49:09;4.75;;;1.92;;
62707;SDS011;48769;51.624;5.886;2023-04-24T13:51:35;3.60;;;2.15;;
62707;SDS011;48769;51.624;5.886;2023-04-24T13:54:00;2.70;;;1.80;;
62707;SDS011;48769;51.624;5.886;2023-04-24T13:56:26;4.68;;;2.58;;
62707;SDS011;48769;51.624;5.886;2023-04-24T13:58:51;7.72;;;2.10;;
62707;SDS011;48769;51.624;5.886;2023-04-24T14:01:16;4.45;;;2.20;;
62707;SDS011;48769;51.624;5.886;2023-04-24T14:03:42;5.97;;;1.70;;
62707;SDS011;48769;51.624;5.886;2023-04-24T14:06:11;5.25;;;1.90;;
62707;SDS011;48769;51.624;5.886;2023-04-24T14:08:36;2.88;;;1.42;;
62707;SDS011;48769;51.624;5.886;2023-04-24T14:11:01;4.25;;;1.80;;
62707;SDS011;48769;51.624;5.886;2023-04-24T14:13:27;3.92;;;2.17;;
62707;SDS011;48769;51.624;5.886;2023-04-24T14:15:53;8.48;;;2.60;;
62707;SDS011;48769;51.624;5.886;2023-04-24T14:18:18;6.47;;;2.83;;
62707;SDS011;48769;51.624;5.886;2023-04-24T14:20:44;11.05;;;4.07;;
62707;SDS011;48769;51.624;5.886;2023-04-24T14:23:10;7.15;;;2.72;;
62707;SDS011;48769;51.624;5.886;2023-04-24T14:25:35;4.68;;;2.40;;
62707;SDS011;48769;51.624;5.886;2023-04-24T14:28:01;6.00;;;2.40;;
62707;SDS011;48769;51.624;5.886;2023-04-24T14:30:26;7.00;;;2.78;;
62707;SDS011;48769;51.624;5.886;2023-04-24T14:32:51;6.35;;;2.45;;
62707;SDS011;48769;51.624;5.886;2023-04-24T14:35:17;6.38;;;2.40;;
62707;SDS011;48769;51.624;5.886;2023-04-24T14:37:42;7.28;;;2.40;;
62707;SDS011;48769;51.624;5.886;2023-04-24T14:40:08;4.55;;;2.20;;